x

Buoy B01 - Western Maine Shelf (44030) Wave Buoy

8:04am - Thu 30th Oct 2014 All times are EDT. -4 hours from GMT.

  • Sig Wave height 2.0ft
  • Peak Period 3s
  • Wind
    16mph, 18mph gusts
  • Sea Temp 54°f
  • 空気 Temp 50°f
  • Sea Pressure 1011.2mb
  • Buoy B01 - Western Maine Shelf
  • Buoy B01 - Western Maine Shelf

More Historic Weather Station data

Upgrade to MSW Pro to gain access to the past 30 days of data for over 8000 Wavebouys and Weather Stations around the globe.

Join Pro

Comparision Forecast

View Surf forecast
   
Thu 10/30 8:04am 2ft 3s 16 18 mph 1011.2mb 54f 50f
7:04am 2ft 3s 13 18 mph 1010.7mb 54f 50f
6:04am 2ft 3s 11 13 mph 1010.3mb 54f 49f
5:04am 2ft 6s 18 20 mph 1009.9mb 54f 49f
4:04am 2ft 5s 11 13 mph 1009.3mb 54f 50f
3:04am 2ft 3s 13 16 mph 1009.6mb 54f 51f
2:04am 2.5ft 3s 16 18 mph 1009.4mb 54f 51f
1:04am 2.5ft 6s 18 22 mph 1009.1mb 54f 52f
12:04am 2ft 6s 13 16 mph 1008.9mb 54f 53f
Wed 10/29 11:04pm 2ft 5s 13 16 mph 1008.8mb 54f 53f
10:04pm 2.5ft 6s 11 13 mph 1009.1mb 54f 53f
9:04pm 2ft 5s 13 16 mph 1009mb 54f 53f
8:04pm 2ft 5s 9 11 mph 1008.3mb 54f 56f
7:04pm 2ft 5s 9 11 mph 1008mb 54f 58f
6:04pm 2ft 5s 11 13 mph 1007.5mb 54f 58f
5:04pm 1.6ft 5s 7 9 mph 1006.8mb 54f 57f
4:04pm 1.6ft 5s 9 11 mph 1007.3mb 54f 55f
3:04pm 1.6ft 5s 7 9 mph 1006.8mb 54f 54f
2:04pm 1.6ft 5s 7 9 mph 1007.2mb 54f 53f
1:04pm 1.6ft 5s 7
mph
1007.7mb 54f 53f
12:04pm 2ft 5s 7
mph
1008.4mb 54f 53f
10:04am 1.6ft 5s 4 7 mph 1009.5mb 54f 53f
9:04am 1.6ft 5s 2
mph
1010.1mb 54f 52f
8:04am 2ft 5s 2 4 mph 1010.2mb 54f 52f
7:04am 1.6ft 5s 4 7 mph 1010.1mb 54f 52f
6:04am 1.6ft 5s 4
mph
1010mb 54f 52f
5:04am 1.6ft 5s 4 7 mph 1010.5mb 54f 52f
4:04am 1.6ft 5s  -  2 mph 1010.6mb 54f 52f
3:04am 1.6ft 5s 7
mph
1010.8mb 54f 52f
2:04am 2ft 5s 7 9 mph 1011.6mb 54f 52f
1:04am 2ft 5s 11
mph
1012mb 54f 53f
12:04am 2.5ft 5s 7 9 mph 1012.3mb 54f 53f
Tue 10/28 11:04pm 1.6ft 5s 9
mph
1012.7mb 54f 53f
10:04pm 2ft 5s 4 7 mph 1013.5mb 54f 54f
9:04pm 2.5ft 5s 4
mph
1013.5mb 54f 54f
8:04pm 2.5ft 4s 4 7 mph 1013.3mb 54f 55f
7:04pm 2ft 4s 9 11 mph 1013.7mb 54f 54f
6:04pm 1.6ft 4s 9 11 mph 1014.2mb 54f 54f
5:04pm 1.6ft 3s 9 11 mph 1014.5mb 54f 54f
4:04pm 1.3ft 3s 11
mph
1014.6mb 54f 54f
3:04pm 1.3ft 6s 9 11 mph 1014.9mb 54f 54f
2:04pm 1ft 6s 9 11 mph 1015.6mb 54f 54f
1:04pm  -   -  9
mph
1016.2mb 54f 53f
12:04pm 0.7ft  -  9 11 mph 1016.6mb 54f 53f
11:04am 0.7ft  -  7 9 mph 1017.2mb 54f 52f
10:04am 0.7ft  -  9
mph
1017.8mb 54f 52f
9:04am 0.7ft  -  7 9 mph 1017.2mb 54f 51f
8:04am 0.7ft  -  4 7 mph 1017.2mb 54f 51f
7:04am 0.7ft  -  4
mph
1016.6mb 54f 51f
6:04am 0.7ft  -  4
mph
1017mb 54f 50f
5:04am 0.3ft  -  4
mph
1016.2mb 54f 50f
4:04am 0.7ft  -  9
mph
1015.9mb 54f 50f
3:04am 0.7ft  -  9 11 mph 1015.9mb 54f 50f
2:04am 0.7ft  -  7 9 mph 1015.7mb 54f 51f
1:04am 1ft 8s 9 11 mph 1014.9mb 54f 51f
12:04am 0.7ft  -  4
mph
1015.1mb 54f 51f
Mon 10/27 11:04pm 1ft 3s 9 11 mph 1014.9mb 54f 51f
10:04pm 1ft 3s 11 16 mph 1014.5mb 54f 52f
9:04pm 1.3ft 3s 13
mph
1013.9mb 54f 52f
8:04pm 1.3ft 3s 16 20 mph 1013.5mb 54f 53f
7:04pm 1.6ft 3s 13 18 mph 1012.7mb 54f 54f
6:04pm 2ft 3s 13 18 mph 1011.6mb 54f 55f
5:04pm 2.5ft 3s 16 20 mph 1010.8mb 54f 56f
4:04pm 3ft 3s 18 20 mph 1010mb 54f 56f
3:04pm 3ft 3s 20 25 mph 1009.2mb 54f 55f
2:04pm 3.5ft 4s 27 31 mph 1008.6mb 54f 55f
1:04pm 3ft 4s 22 29 mph 1008.7mb 54f 54f
12:04pm 2.5ft 4s 25 29 mph 1008.7mb 54f 54f
11:04am 2.5ft 4s 25 29 mph 1008.8mb 54f 53f
10:04am 2.5ft 3s 22 25 mph 1008.3mb 53f 51f
9:04am 2.5ft 3s 22 27 mph 1007.5mb 53f 50f
8:04am 2.5ft 3s 20 25 mph 1007.1mb 53f 49f
7:04am 2.5ft 3s 20 25 mph 1005.9mb 53f 49f
6:04am 2ft 3s 18 22 mph 1005.4mb 53f 49f
5:04am 2.5ft 3s 18 22 mph 1004.7mb 53f 49f
4:04am 2ft 3s 18 22 mph 1004.1mb 53f 48f
3:04am 2ft 3s 16 20 mph 1003.4mb 54f 49f
2:04am 1.3ft 3s 18 22 mph 1003.2mb 54f 49f
1:04am 1.6ft 3s 13 16 mph 1002.5mb 54f 49f
12:04am 1.3ft 3s 16 20 mph 1002.4mb 54f 49f
Sun 10/26 11:04pm 1.6ft 3s 16 20 mph 1002.5mb 54f 49f
10:04pm 1.6ft 3s 18 22 mph 1002.4mb 54f 50f
9:04pm 2.5ft 3s 20 25 mph 1001.7mb 54f 51f
8:04pm 2ft 3s 22 27 mph 1000.9mb 54f 51f
7:04pm 2ft 3s 20 25 mph 1000mb 54f 52f
6:04pm 2.5ft 3s 20 22 mph 998.8mb 54f 54f
5:04pm 2.5ft 3s 22 27 mph 997.5mb 54f 55f
4:04pm 2.5ft 3s 25 29 mph 996.1mb 54f 55f
3:04pm 2.5ft 3s 20 27 mph 995.2mb 54f 55f
2:04pm 2.5ft 3s 18 22 mph 994.8mb 54f 55f